sensor_id;sensor_type;location;lat;lon;timestamp;P1;durP1;ratioP1;P2;durP2;ratioP2
75626;SDS011;67372;49.404;11.034;2023-03-14T00:02:24;0.75;;;0.47;;
75626;SDS011;67372;49.404;11.034;2023-03-14T00:04:53;0.95;;;0.30;;
75626;SDS011;67372;49.404;11.034;2023-03-14T00:07:20;2.00;;;0.50;;
75626;SDS011;67372;49.404;11.034;2023-03-14T00:09:46;0.52;;;0.30;;
75626;SDS011;67372;49.404;11.034;2023-03-14T00:12:13;0.57;;;0.30;;
75626;SDS011;67372;49.404;11.034;2023-03-14T00:14:39;2.20;;;0.30;;
75626;SDS011;67372;49.404;11.034;2023-03-14T00:17:05;0.65;;;0.30;;
75626;SDS011;67372;49.404;11.034;2023-03-14T00:19:32;0.43;;;0.35;;
75626;SDS011;67372;49.404;11.034;2023-03-14T00:21:58;0.93;;;0.30;;
75626;SDS011;67372;49.404;11.034;2023-03-14T00:24:24;1.13;;;0.40;;
75626;SDS011;67372;49.404;11.034;2023-03-14T00:26:51;0.25;;;0.20;;
75626;SDS011;67372;49.404;11.034;2023-03-14T00:29:17;0.22;;;0.15;;
75626;SDS011;67372;49.404;11.034;2023-03-14T00:31:44;1.05;;;0.30;;
75626;SDS011;67372;49.404;11.034;2023-03-14T00:34:10;0.35;;;0.10;;
75626;SDS011;67372;49.404;11.034;2023-03-14T00:36:36;0.45;;;0.20;;
75626;SDS011;67372;49.404;11.034;2023-03-14T00:39:03;0.40;;;0.28;;
75626;SDS011;67372;49.404;11.034;2023-03-14T00:41:29;0.22;;;0.10;;
75626;SDS011;67372;49.404;11.034;2023-03-14T00:43:55;0.47;;;0.20;;
75626;SDS011;67372;49.404;11.034;2023-03-14T00:46:22;0.25;;;0.17;;
75626;SDS011;67372;49.404;11.034;2023-03-14T00:48:48;0.30;;;0.30;;
75626;SDS011;67372;49.404;11.034;2023-03-14T00:51:15;0.25;;;0.20;;
75626;SDS011;67372;49.404;11.034;2023-03-14T00:53:42;0.75;;;0.15;;
75626;SDS011;67372;49.404;11.034;2023-03-14T00:56:10;0.45;;;0.20;;
75626;SDS011;67372;49.404;11.034;2023-03-14T00:58:37;0.10;;;0.10;;
75626;SDS011;67372;49.404;11.034;2023-03-14T01:01:08;0.32;;;0.30;;
75626;SDS011;67372;49.404;11.034;2023-03-14T01:03:38;0.10;;;0.10;;
75626;SDS011;67372;49.404;11.034;2023-03-14T01:06:23;0.17;;;0.10;;
75626;SDS011;67372;49.404;11.034;2023-03-14T01:08:51;0.70;;;0.10;;
75626;SDS011;67372;49.404;11.034;2023-03-14T01:13:46;0.20;;;0.10;;
75626;SDS011;67372;49.404;11.034;2023-03-14T01:16:13;0.20;;;0.15;;
75626;SDS011;67372;49.404;11.034;2023-03-14T01:21:18;0.35;;;0.10;;
75626;SDS011;67372;49.404;11.034;2023-03-14T01:23:47;0.20;;;0.10;;
75626;SDS011;67372;49.404;11.034;2023-03-14T01:26:15;0.20;;;0.10;;
75626;SDS011;67372;49.404;11.034;2023-03-14T01:28:43;0.10;;;0.10;;
75626;SDS011;67372;49.404;11.034;2023-03-14T01:31:10;0.10;;;0.10;;
75626;SDS011;67372;49.404;11.034;2023-03-14T01:33:37;0.10;;;0.10;;
75626;SDS011;67372;49.404;11.034;2023-03-14T01:36:03;0.03;;;0.03;;
75626;SDS011;67372;49.404;11.034;2023-03-14T01:38:30;0.38;;;0.10;;
75626;SDS011;67372;49.404;11.034;2023-03-14T01:40:58;0.10;;;0.10;;
75626;SDS011;67372;49.404;11.034;2023-03-14T01:43:24;0.17;;;0.10;;
75626;SDS011;67372;49.404;11.034;2023-03-14T01:46:12;0.30;;;0.10;;
75626;SDS011;67372;49.404;11.034;2023-03-14T01:48:47;0.10;;;0.10;;
75626;SDS011;67372;49.404;11.034;2023-03-14T01:54:13;0.75;;;0.25;;
75626;SDS011;67372;49.404;11.034;2023-03-14T01:56:44;0.17;;;0.10;;
75626;SDS011;67372;49.404;11.034;2023-03-14T01:59:15;0.10;;;0.10;;
75626;SDS011;67372;49.404;11.034;2023-03-14T02:01:42;0.10;;;0.10;;
75626;SDS011;67372;49.404;11.034;2023-03-14T02:04:11;0.00;;;0.00;;
75626;SDS011;67372;49.404;11.034;2023-03-14T02:06:40;0.63;;;0.10;;
75626;SDS011;67372;49.404;11.034;2023-03-14T02:09:13;0.17;;;0.05;;
75626;SDS011;67372;49.404;11.034;2023-03-14T02:11:40;0.10;;;0.10;;
75626;SDS011;67372;49.404;11.034;2023-03-14T02:14:07;0.30;;;0.10;;
75626;SDS011;67372;49.404;11.034;2023-03-14T02:16:38;0.08;;;0.08;;
75626;SDS011;67372;49.404;11.034;2023-03-14T02:19:05;0.03;;;0.03;;
75626;SDS011;67372;49.404;11.034;2023-03-14T02:24:33;0.10;;;0.10;;
75626;SDS011;67372;49.404;11.034;2023-03-14T02:27:13;0.15;;;0.10;;
75626;SDS011;67372;49.404;11.034;2023-03-14T02:29:55;0.20;;;0.00;;
75626;SDS011;67372;49.404;11.034;2023-03-14T02:32:26;0.10;;;0.10;;
75626;SDS011;67372;49.404;11.034;2023-03-14T02:34:57;0.20;;;0.10;;
75626;SDS011;67372;49.404;11.034;2023-03-14T02:37:31;0.43;;;0.17;;
75626;SDS011;67372;49.404;11.034;2023-03-14T02:40:02;0.13;;;0.00;;
75626;SDS011;67372;49.404;11.034;2023-03-14T02:42:29;0.10;;;0.10;;
75626;SDS011;67372;49.404;11.034;2023-03-14T02:45:01;0.10;;;0.10;;
75626;SDS011;67372;49.404;11.034;2023-03-14T02:47:56;0.80;;;0.20;;
75626;SDS011;67372;49.404;11.034;2023-03-14T02:50:28;0.10;;;0.00;;
75626;SDS011;67372;49.404;11.034;2023-03-14T02:52:59;0.10;;;0.10;;
75626;SDS011;67372;49.404;11.034;2023-03-14T02:55:25;0.10;;;0.10;;
75626;SDS011;67372;49.404;11.034;2023-03-14T02:57:52;0.25;;;0.10;;
75626;SDS011;67372;49.404;11.034;2023-03-14T03:00:19;0.40;;;0.20;;
75626;SDS011;67372;49.404;11.034;2023-03-14T03:02:46;0.10;;;0.10;;
75626;SDS011;67372;49.404;11.034;2023-03-14T03:05:12;0.25;;;0.10;;
75626;SDS011;67372;49.404;11.034;2023-03-14T03:07:39;0.50;;;0.20;;
75626;SDS011;67372;49.404;11.034;2023-03-14T03:10:05;0.10;;;0.10;;
75626;SDS011;67372;49.404;11.034;2023-03-14T03:12:32;0.15;;;0.10;;
75626;SDS011;67372;49.404;11.034;2023-03-14T03:14:58;0.22;;;0.10;;
75626;SDS011;67372;49.404;11.034;2023-03-14T03:17:25;0.15;;;0.13;;
75626;SDS011;67372;49.404;11.034;2023-03-14T03:19:51;0.73;;;0.20;;
75626;SDS011;67372;49.404;11.034;2023-03-14T03:22:17;0.10;;;0.10;;
75626;SDS011;67372;49.404;11.034;2023-03-14T03:24:44;0.85;;;0.22;;
75626;SDS011;67372;49.404;11.034;2023-03-14T03:27:10;0.10;;;0.10;;
75626;SDS011;67372;49.404;11.034;2023-03-14T03:29:36;0.22;;;0.20;;
75626;SDS011;67372;49.404;11.034;2023-03-14T03:32:03;0.10;;;0.10;;
75626;SDS011;67372;49.404;11.034;2023-03-14T03:34:29;0.50;;;0.20;;
75626;SDS011;67372;49.404;11.034;2023-03-14T03:36:56;0.10;;;0.10;;
75626;SDS011;67372;49.404;11.034;2023-03-14T03:39:23;0.28;;;0.10;;
75626;SDS011;67372;49.404;11.034;2023-03-14T03:41:49;0.20;;;0.10;;
75626;SDS011;67372;49.404;11.034;2023-03-14T03:44:15;0.30;;;0.10;;
75626;SDS011;67372;49.404;11.034;2023-03-14T03:46:42;0.20;;;0.20;;
75626;SDS011;67372;49.404;11.034;2023-03-14T03:49:08;1.25;;;0.13;;
75626;SDS011;67372;49.404;11.034;2023-03-14T03:51:34;0.57;;;0.20;;
75626;SDS011;67372;49.404;11.034;2023-03-14T03:54:00;0.20;;;0.10;;
75626;SDS011;67372;49.404;11.034;2023-03-14T03:56:27;0.28;;;0.10;;
75626;SDS011;67372;49.404;11.034;2023-03-14T03:58:53;0.20;;;0.20;;
75626;SDS011;67372;49.404;11.034;2023-03-14T04:01:19;0.10;;;0.10;;
75626;SDS011;67372;49.404;11.034;2023-03-14T04:03:46;0.20;;;0.10;;
75626;SDS011;67372;49.404;11.034;2023-03-14T04:06:13;2.03;;;0.30;;
75626;SDS011;67372;49.404;11.034;2023-03-14T04:08:40;0.50;;;0.20;;
75626;SDS011;67372;49.404;11.034;2023-03-14T04:11:07;0.20;;;0.10;;
75626;SDS011;67372;49.404;11.034;2023-03-14T04:13:33;0.85;;;0.20;;
75626;SDS011;67372;49.404;11.034;2023-03-14T04:15:59;3.13;;;0.40;;
75626;SDS011;67372;49.404;11.034;2023-03-14T04:18:26;0.60;;;0.20;;
75626;SDS011;67372;49.404;11.034;2023-03-14T04:20:54;0.32;;;0.13;;
75626;SDS011;67372;49.404;11.034;2023-03-14T04:23:22;0.28;;;0.08;;
75626;SDS011;67372;49.404;11.034;2023-03-14T04:25:49;0.13;;;0.10;;
75626;SDS011;67372;49.404;11.034;2023-03-14T04:28:19;0.17;;;0.17;;
75626;SDS011;67372;49.404;11.034;2023-03-14T04:30:45;0.52;;;0.30;;
75626;SDS011;67372;49.404;11.034;2023-03-14T04:33:12;3.20;;;0.22;;
75626;SDS011;67372;49.404;11.034;2023-03-14T04:35:38;0.47;;;0.20;;
75626;SDS011;67372;49.404;11.034;2023-03-14T04:38:05;0.30;;;0.20;;
75626;SDS011;67372;49.404;11.034;2023-03-14T04:40:31;0.38;;;0.20;;
75626;SDS011;67372;49.404;11.034;2023-03-14T04:42:57;0.30;;;0.17;;
75626;SDS011;67372;49.404;11.034;2023-03-14T04:45:24;0.20;;;0.10;;
75626;SDS011;67372;49.404;11.034;2023-03-14T04:47:50;0.20;;;0.15;;
75626;SDS011;67372;49.404;11.034;2023-03-14T04:50:16;0.60;;;0.20;;
75626;SDS011;67372;49.404;11.034;2023-03-14T04:52:43;0.55;;;0.30;;
75626;SDS011;67372;49.404;11.034;2023-03-14T04:55:09;0.52;;;0.30;;
75626;SDS011;67372;49.404;11.034;2023-03-14T04:57:35;0.20;;;0.20;;
75626;SDS011;67372;49.404;11.034;2023-03-14T05:00:02;0.30;;;0.20;;
75626;SDS011;67372;49.404;11.034;2023-03-14T05:04:55;0.57;;;0.20;;
75626;SDS011;67372;49.404;11.034;2023-03-14T05:07:22;0.73;;;0.30;;
75626;SDS011;67372;49.404;11.034;2023-03-14T05:09:48;0.30;;;0.20;;
75626;SDS011;67372;49.404;11.034;2023-03-14T05:12:15;0.73;;;0.38;;
75626;SDS011;67372;49.404;11.034;2023-03-14T05:14:41;1.35;;;0.40;;
75626;SDS011;67372;49.404;11.034;2023-03-14T05:17:07;0.73;;;0.28;;
75626;SDS011;67372;49.404;11.034;2023-03-14T05:19:35;0.75;;;0.20;;
75626;SDS011;67372;49.404;11.034;2023-03-14T05:22:01;0.85;;;0.30;;
75626;SDS011;67372;49.404;11.034;2023-03-14T05:24:27;0.28;;;0.25;;
75626;SDS011;67372;49.404;11.034;2023-03-14T05:26:54;0.93;;;0.30;;
75626;SDS011;67372;49.404;11.034;2023-03-14T05:29:20;0.50;;;0.25;;
75626;SDS011;67372;49.404;11.034;2023-03-14T05:31:46;0.45;;;0.30;;
75626;SDS011;67372;49.404;11.034;2023-03-14T05:34:13;0.57;;;0.30;;
75626;SDS011;67372;49.404;11.034;2023-03-14T05:36:39;0.73;;;0.40;;
75626;SDS011;67372;49.404;11.034;2023-03-14T05:39:06;0.98;;;0.50;;
75626;SDS011;67372;49.404;11.034;2023-03-14T05:41:32;0.75;;;0.43;;
75626;SDS011;67372;49.404;11.034;2023-03-14T05:43:58;0.80;;;0.50;;
75626;SDS011;67372;49.404;11.034;2023-03-14T05:46:25;0.40;;;0.30;;
75626;SDS011;67372;49.404;11.034;2023-03-14T05:48:51;1.48;;;0.40;;
75626;SDS011;67372;49.404;11.034;2023-03-14T05:51:17;0.85;;;0.47;;
75626;SDS011;67372;49.404;11.034;2023-03-14T05:53:44;1.30;;;0.70;;
75626;SDS011;67372;49.404;11.034;2023-03-14T05:56:10;1.05;;;0.50;;
75626;SDS011;67372;49.404;11.034;2023-03-14T05:58:36;1.05;;;0.50;;
75626;SDS011;67372;49.404;11.034;2023-03-14T06:01:03;0.90;;;0.52;;
75626;SDS011;67372;49.404;11.034;2023-03-14T06:03:31;1.33;;;0.57;;
75626;SDS011;67372;49.404;11.034;2023-03-14T06:05:57;1.23;;;0.60;;
75626;SDS011;67372;49.404;11.034;2023-03-14T06:08:24;1.25;;;0.60;;
75626;SDS011;67372;49.404;11.034;2023-03-14T06:10:51;0.50;;;0.40;;
75626;SDS011;67372;49.404;11.034;2023-03-14T06:13:17;1.75;;;0.68;;
75626;SDS011;67372;49.404;11.034;2023-03-14T06:15:44;1.63;;;0.50;;
75626;SDS011;67372;49.404;11.034;2023-03-14T06:18:10;0.85;;;0.60;;
75626;SDS011;67372;49.404;11.034;2023-03-14T06:20:37;2.08;;;0.60;;
75626;SDS011;67372;49.404;11.034;2023-03-14T06:23:05;0.70;;;0.55;;
75626;SDS011;67372;49.404;11.034;2023-03-14T06:25:32;1.00;;;0.70;;
75626;SDS011;67372;49.404;11.034;2023-03-14T06:27:59;1.15;;;0.50;;
75626;SDS011;67372;49.404;11.034;2023-03-14T06:30:25;1.17;;;0.60;;
75626;SDS011;67372;49.404;11.034;2023-03-14T06:32:52;1.48;;;0.57;;
75626;SDS011;67372;49.404;11.034;2023-03-14T06:35:19;1.10;;;0.43;;
75626;SDS011;67372;49.404;11.034;2023-03-14T06:37:45;0.93;;;0.70;;
75626;SDS011;67372;49.404;11.034;2023-03-14T06:40:12;1.58;;;0.70;;
75626;SDS011;67372;49.404;11.034;2023-03-14T06:42:38;1.85;;;0.80;;
75626;SDS011;67372;49.404;11.034;2023-03-14T06:45:05;1.45;;;0.80;;
75626;SDS011;67372;49.404;11.034;2023-03-14T06:47:32;1.00;;;0.60;;
75626;SDS011;67372;49.404;11.034;2023-03-14T06:49:58;1.40;;;0.63;;
75626;SDS011;67372;49.404;11.034;2023-03-14T06:52:25;2.03;;;1.40;;
75626;SDS011;67372;49.404;11.034;2023-03-14T06:54:51;4.05;;;2.42;;
75626;SDS011;67372;49.404;11.034;2023-03-14T06:57:18;15.20;;;7.63;;
75626;SDS011;67372;49.404;11.034;2023-03-14T06:59:44;2.38;;;1.65;;
75626;SDS011;67372;49.404;11.034;2023-03-14T07:02:11;2.90;;;1.80;;
75626;SDS011;67372;49.404;11.034;2023-03-14T07:04:38;1.60;;;0.82;;
75626;SDS011;67372;49.404;11.034;2023-03-14T07:07:05;1.90;;;1.67;;
75626;SDS011;67372;49.404;11.034;2023-03-14T07:09:31;2.40;;;1.60;;
75626;SDS011;67372;49.404;11.034;2023-03-14T07:11:58;1.20;;;0.82;;
75626;SDS011;67372;49.404;11.034;2023-03-14T07:14:25;1.67;;;0.77;;
75626;SDS011;67372;49.404;11.034;2023-03-14T07:16:51;1.80;;;0.73;;
75626;SDS011;67372;49.404;11.034;2023-03-14T07:19:18;1.02;;;0.70;;
75626;SDS011;67372;49.404;11.034;2023-03-14T07:21:44;2.03;;;0.98;;
75626;SDS011;67372;49.404;11.034;2023-03-14T07:24:10;1.67;;;0.70;;
75626;SDS011;67372;49.404;11.034;2023-03-14T07:26:37;2.08;;;0.80;;
75626;SDS011;67372;49.404;11.034;2023-03-14T07:29:03;2.80;;;1.20;;
75626;SDS011;67372;49.404;11.034;2023-03-14T07:31:29;2.25;;;1.10;;
75626;SDS011;67372;49.404;11.034;2023-03-14T07:33:56;1.92;;;0.95;;
75626;SDS011;67372;49.404;11.034;2023-03-14T07:36:22;1.88;;;1.02;;
75626;SDS011;67372;49.404;11.034;2023-03-14T07:38:48;3.10;;;2.00;;
75626;SDS011;67372;49.404;11.034;2023-03-14T07:41:15;3.53;;;1.50;;
75626;SDS011;67372;49.404;11.034;2023-03-14T07:43:41;2.38;;;1.10;;
75626;SDS011;67372;49.404;11.034;2023-03-14T07:46:07;2.28;;;1.20;;
75626;SDS011;67372;49.404;11.034;2023-03-14T07:48:34;2.05;;;1.20;;
75626;SDS011;67372;49.404;11.034;2023-03-14T07:51:00;3.10;;;1.52;;
75626;SDS011;67372;49.404;11.034;2023-03-14T07:53:27;1.50;;;1.23;;
75626;SDS011;67372;49.404;11.034;2023-03-14T07:55:53;3.00;;;2.70;;
75626;SDS011;67372;49.404;11.034;2023-03-14T07:58:21;2.65;;;1.70;;
75626;SDS011;67372;49.404;11.034;2023-03-14T08:00:48;4.30;;;2.30;;
75626;SDS011;67372;49.404;11.034;2023-03-14T08:05:41;5.90;;;4.22;;
75626;SDS011;67372;49.404;11.034;2023-03-14T08:08:07;2.63;;;1.80;;
75626;SDS011;67372;49.404;11.034;2023-03-14T08:10:34;3.83;;;2.00;;
75626;SDS011;67372;49.404;11.034;2023-03-14T08:13:00;5.60;;;2.83;;
75626;SDS011;67372;49.404;11.034;2023-03-14T08:15:28;2.72;;;1.92;;
75626;SDS011;67372;49.404;11.034;2023-03-14T08:17:55;3.80;;;2.30;;
75626;SDS011;67372;49.404;11.034;2023-03-14T08:20:23;5.15;;;2.75;;
75626;SDS011;67372;49.404;11.034;2023-03-14T08:22:52;2.40;;;2.05;;
75626;SDS011;67372;49.404;11.034;2023-03-14T08:25:20;2.13;;;1.33;;
75626;SDS011;67372;49.404;11.034;2023-03-14T08:27:47;3.35;;;2.40;;
75626;SDS011;67372;49.404;11.034;2023-03-14T08:30:14;2.22;;;2.03;;
75626;SDS011;67372;49.404;11.034;2023-03-14T08:32:42;2.72;;;1.50;;
75626;SDS011;67372;49.404;11.034;2023-03-14T08:35:09;5.82;;;1.48;;
75626;SDS011;67372;49.404;11.034;2023-03-14T08:37:36;1.13;;;0.70;;
75626;SDS011;67372;49.404;11.034;2023-03-14T08:40:03;1.10;;;0.85;;
75626;SDS011;67372;49.404;11.034;2023-03-14T08:42:31;1.05;;;0.70;;
75626;SDS011;67372;49.404;11.034;2023-03-14T08:44:58;1.27;;;0.60;;
75626;SDS011;67372;49.404;11.034;2023-03-14T08:47:24;2.85;;;1.13;;
75626;SDS011;67372;49.404;11.034;2023-03-14T08:49:51;1.30;;;0.80;;
75626;SDS011;67372;49.404;11.034;2023-03-14T08:52:17;1.30;;;0.63;;
75626;SDS011;67372;49.404;11.034;2023-03-14T08:54:44;1.88;;;0.80;;
75626;SDS011;67372;49.404;11.034;2023-03-14T08:57:10;1.63;;;0.60;;
75626;SDS011;67372;49.404;11.034;2023-03-14T08:59:37;1.15;;;0.40;;
75626;SDS011;67372;49.404;11.034;2023-03-14T09:02:03;2.78;;;0.60;;
75626;SDS011;67372;49.404;11.034;2023-03-14T09:04:30;0.60;;;0.57;;
75626;SDS011;67372;49.404;11.034;2023-03-14T09:06:58;0.40;;;0.40;;
75626;SDS011;67372;49.404;11.034;2023-03-14T09:09:25;0.40;;;0.40;;
75626;SDS011;67372;49.404;11.034;2023-03-14T09:11:52;1.70;;;0.60;;
75626;SDS011;67372;49.404;11.034;2023-03-14T09:14:18;1.50;;;0.50;;
75626;SDS011;67372;49.404;11.034;2023-03-14T09:16:48;0.73;;;0.40;;
75626;SDS011;67372;49.404;11.034;2023-03-14T09:19:14;1.40;;;0.40;;
75626;SDS011;67372;49.404;11.034;2023-03-14T09:21:41;0.65;;;0.40;;
75626;SDS011;67372;49.404;11.034;2023-03-14T09:24:07;2.25;;;0.70;;
75626;SDS011;67372;49.404;11.034;2023-03-14T09:26:33;1.05;;;0.60;;
75626;SDS011;67372;49.404;11.034;2023-03-14T09:29:00;0.90;;;0.30;;
75626;SDS011;67372;49.404;11.034;2023-03-14T09:31:26;1.13;;;0.77;;
75626;SDS011;67372;49.404;11.034;2023-03-14T09:33:53;1.30;;;0.60;;
75626;SDS011;67372;49.404;11.034;2023-03-14T09:36:19;1.23;;;0.60;;
75626;SDS011;67372;49.404;11.034;2023-03-14T09:38:45;2.38;;;0.40;;
75626;SDS011;67372;49.404;11.034;2023-03-14T09:41:21;3.20;;;1.88;;
75626;SDS011;67372;49.404;11.034;2023-03-14T09:43:53;1.33;;;0.47;;
75626;SDS011;67372;49.404;11.034;2023-03-14T09:46:38;0.82;;;0.40;;
75626;SDS011;67372;49.404;11.034;2023-03-14T09:49:09;1.45;;;0.50;;
75626;SDS011;67372;49.404;11.034;2023-03-14T09:51:46;0.85;;;0.40;;
75626;SDS011;67372;49.404;11.034;2023-03-14T09:57:02;1.75;;;0.40;;
75626;SDS011;67372;49.404;11.034;2023-03-14T09:59:30;0.80;;;0.50;;
75626;SDS011;67372;49.404;11.034;2023-03-14T10:02:00;1.42;;;0.30;;
75626;SDS011;67372;49.404;11.034;2023-03-14T10:04:27;1.35;;;0.40;;
75626;SDS011;67372;49.404;11.034;2023-03-14T10:06:54;2.65;;;0.75;;
75626;SDS011;67372;49.404;11.034;2023-03-14T10:09:22;4.13;;;2.17;;
75626;SDS011;67372;49.404;11.034;2023-03-14T10:11:49;3.15;;;1.77;;
75626;SDS011;67372;49.404;11.034;2023-03-14T10:14:28;4.45;;;3.15;;
75626;SDS011;67372;49.404;11.034;2023-03-14T10:16:55;3.65;;;2.30;;
75626;SDS011;67372;49.404;11.034;2023-03-14T10:19:31;1.05;;;0.90;;
75626;SDS011;67372;49.404;11.034;2023-03-14T10:22:00;1.50;;;1.00;;
75626;SDS011;67372;49.404;11.034;2023-03-14T10:24:28;0.70;;;0.60;;
75626;SDS011;67372;49.404;11.034;2023-03-14T10:29:31;1.15;;;0.75;;
75626;SDS011;67372;49.404;11.034;2023-03-14T10:34:30;1.70;;;0.80;;
75626;SDS011;67372;49.404;11.034;2023-03-14T10:36:59;1.40;;;0.52;;
75626;SDS011;67372;49.404;11.034;2023-03-14T10:39:34;0.70;;;0.28;;
75626;SDS011;67372;49.404;11.034;2023-03-14T10:42:25;0.15;;;0.15;;
75626;SDS011;67372;49.404;11.034;2023-03-14T10:44:56;1.55;;;0.30;;
75626;SDS011;67372;49.404;11.034;2023-03-14T10:47:25;0.35;;;0.30;;
75626;SDS011;67372;49.404;11.034;2023-03-14T10:49:52;0.28;;;0.20;;
75626;SDS011;67372;49.404;11.034;2023-03-14T10:52:26;1.02;;;0.30;;
75626;SDS011;67372;49.404;11.034;2023-03-14T10:55:14;0.25;;;0.15;;
75626;SDS011;67372;49.404;11.034;2023-03-14T10:57:40;0.55;;;0.30;;
75626;SDS011;67372;49.404;11.034;2023-03-14T11:00:17;1.83;;;0.50;;
75626;SDS011;67372;49.404;11.034;2023-03-14T11:03:03;0.75;;;0.30;;
75626;SDS011;67372;49.404;11.034;2023-03-14T11:05:56;0.80;;;0.20;;
75626;SDS011;67372;49.404;11.034;2023-03-14T11:08:32;0.80;;;0.40;;
75626;SDS011;67372;49.404;11.034;2023-03-14T11:11:19;0.73;;;0.40;;
75626;SDS011;67372;49.404;11.034;2023-03-14T11:13:53;0.47;;;0.30;;
75626;SDS011;67372;49.404;11.034;2023-03-14T11:16:31;0.50;;;0.20;;
75626;SDS011;67372;49.404;11.034;2023-03-14T11:19:19;0.50;;;0.40;;
75626;SDS011;67372;49.404;11.034;2023-03-14T11:21:53;0.50;;;0.38;;
75626;SDS011;67372;49.404;11.034;2023-03-14T11:35:16;1.58;;;0.75;;
75626;SDS011;67372;49.404;11.034;2023-03-14T11:37:46;0.80;;;0.30;;
75626;SDS011;67372;49.404;11.034;2023-03-14T11:40:21;0.90;;;0.45;;
75626;SDS011;67372;49.404;11.034;2023-03-14T11:43:11;1.83;;;0.50;;
75626;SDS011;67372;49.404;11.034;2023-03-14T11:48:16;0.70;;;0.40;;
75626;SDS011;67372;49.404;11.034;2023-03-14T11:50:50;0.52;;;0.40;;
75626;SDS011;67372;49.404;11.034;2023-03-14T11:58:35;0.55;;;0.55;;
75626;SDS011;67372;49.404;11.034;2023-03-14T12:03:52;0.43;;;0.17;;
75626;SDS011;67372;49.404;11.034;2023-03-14T12:11:52;0.30;;;0.20;;
75626;SDS011;67372;49.404;11.034;2023-03-14T12:14:29;0.43;;;0.30;;
75626;SDS011;67372;49.404;11.034;2023-03-14T12:24:45;0.60;;;0.20;;
75626;SDS011;67372;49.404;11.034;2023-03-14T12:27:50;0.10;;;0.10;;
75626;SDS011;67372;49.404;11.034;2023-03-14T12:38:02;0.35;;;0.10;;
75626;SDS011;67372;49.404;11.034;2023-03-14T12:40:35;0.20;;;0.10;;
75626;SDS011;67372;49.404;11.034;2023-03-14T12:46:37;0.57;;;0.30;;
75626;SDS011;67372;49.404;11.034;2023-03-14T12:48:47;0.20;;;0.20;;
75626;SDS011;67372;49.404;11.034;2023-03-14T12:51:28;0.90;;;0.20;;
75626;SDS011;67372;49.404;11.034;2023-03-14T12:54:07;0.20;;;0.20;;
75626;SDS011;67372;49.404;11.034;2023-03-14T12:56:58;0.20;;;0.20;;
75626;SDS011;67372;49.404;11.034;2023-03-14T13:02:22;0.73;;;0.10;;
75626;SDS011;67372;49.404;11.034;2023-03-14T13:05:04;0.13;;;0.10;;
75626;SDS011;67372;49.404;11.034;2023-03-14T13:12:40;0.25;;;0.10;;
75626;SDS011;67372;49.404;11.034;2023-03-14T13:15:34;0.57;;;0.20;;
75626;SDS011;67372;49.404;11.034;2023-03-14T13:18:12;0.20;;;0.20;;
75626;SDS011;67372;49.404;11.034;2023-03-14T13:20:51;0.32;;;0.30;;
75626;SDS011;67372;49.404;11.034;2023-03-14T13:23:21;0.22;;;0.20;;
75626;SDS011;67372;49.404;11.034;2023-03-14T13:25:52;1.13;;;0.30;;
75626;SDS011;67372;49.404;11.034;2023-03-14T13:28:18;0.50;;;0.20;;
75626;SDS011;67372;49.404;11.034;2023-03-14T13:30:46;0.10;;;0.10;;
75626;SDS011;67372;49.404;11.034;2023-03-14T13:33:15;3.58;;;0.30;;
75626;SDS011;67372;49.404;11.034;2023-03-14T13:35:48;0.10;;;0.10;;
75626;SDS011;67372;49.404;11.034;2023-03-14T13:38:22;0.13;;;0.13;;
75626;SDS011;67372;49.404;11.034;2023-03-14T13:40:51;0.20;;;0.10;;
75626;SDS011;67372;49.404;11.034;2023-03-14T13:43:24;0.40;;;0.20;;
75626;SDS011;67372;49.404;11.034;2023-03-14T13:48:54;0.28;;;0.13;;
75626;SDS011;67372;49.404;11.034;2023-03-14T13:51:24;1.48;;;0.63;;
75626;SDS011;67372;49.404;11.034;2023-03-14T13:56:19;0.75;;;0.20;;
75626;SDS011;67372;49.404;11.034;2023-03-14T13:58:49;0.68;;;0.30;;
75626;SDS011;67372;49.404;11.034;2023-03-14T14:01:17;2.28;;;0.40;;
75626;SDS011;67372;49.404;11.034;2023-03-14T14:03:51;0.10;;;0.10;;
75626;SDS011;67372;49.404;11.034;2023-03-14T14:08:49;0.20;;;0.20;;
75626;SDS011;67372;49.404;11.034;2023-03-14T14:11:21;0.45;;;0.32;;
75626;SDS011;67372;49.404;11.034;2023-03-14T14:14:14;0.52;;;0.20;;
75626;SDS011;67372;49.404;11.034;2023-03-14T14:16:55;0.17;;;0.17;;
75626;SDS011;67372;49.404;11.034;2023-03-14T14:19:23;0.30;;;0.20;;
75626;SDS011;67372;49.404;11.034;2023-03-14T14:21:53;0.57;;;0.30;;
75626;SDS011;67372;49.404;11.034;2023-03-14T14:24:21;0.35;;;0.35;;
75626;SDS011;67372;49.404;11.034;2023-03-14T14:26:51;0.85;;;0.35;;
75626;SDS011;67372;49.404;11.034;2023-03-14T14:29:28;0.55;;;0.50;;
75626;SDS011;67372;49.404;11.034;2023-03-14T14:34:44;0.35;;;0.35;;
75626;SDS011;67372;49.404;11.034;2023-03-14T14:37:32;0.55;;;0.45;;
75626;SDS011;67372;49.404;11.034;2023-03-14T14:40:01;0.43;;;0.40;;
75626;SDS011;67372;49.404;11.034;2023-03-14T14:42:35;0.80;;;0.30;;
75626;SDS011;67372;49.404;11.034;2023-03-14T14:45:06;1.13;;;0.55;;
75626;SDS011;67372;49.404;11.034;2023-03-14T14:47:47;1.45;;;0.47;;
75626;SDS011;67372;49.404;11.034;2023-03-14T14:50:36;1.10;;;0.40;;
75626;SDS011;67372;49.404;11.034;2023-03-14T14:55:56;0.95;;;0.50;;
75626;SDS011;67372;49.404;11.034;2023-03-14T14:58:28;0.70;;;0.63;;
75626;SDS011;67372;49.404;11.034;2023-03-14T15:01:03;2.33;;;0.70;;
75626;SDS011;67372;49.404;11.034;2023-03-14T15:03:35;1.17;;;0.70;;
75626;SDS011;67372;49.404;11.034;2023-03-14T15:06:02;0.98;;;0.60;;
75626;SDS011;67372;49.404;11.034;2023-03-14T15:08:29;0.98;;;0.52;;
75626;SDS011;67372;49.404;11.034;2023-03-14T15:10:56;1.20;;;0.70;;
75626;SDS011;67372;49.404;11.034;2023-03-14T15:13:23;2.47;;;1.20;;
75626;SDS011;67372;49.404;11.034;2023-03-14T15:15:49;1.88;;;0.77;;
75626;SDS011;67372;49.404;11.034;2023-03-14T15:18:17;2.08;;;0.90;;
75626;SDS011;67372;49.404;11.034;2023-03-14T15:20:44;1.98;;;1.00;;
75626;SDS011;67372;49.404;11.034;2023-03-14T15:23:11;2.58;;;1.15;;
75626;SDS011;67372;49.404;11.034;2023-03-14T15:25:39;1.55;;;0.93;;
75626;SDS011;67372;49.404;11.034;2023-03-14T15:28:21;3.67;;;1.48;;
75626;SDS011;67372;49.404;11.034;2023-03-14T15:30:50;2.90;;;0.85;;
75626;SDS011;67372;49.404;11.034;2023-03-14T15:33:18;3.22;;;1.40;;
75626;SDS011;67372;49.404;11.034;2023-03-14T15:35:46;1.40;;;1.00;;
75626;SDS011;67372;49.404;11.034;2023-03-14T15:38:13;1.05;;;0.73;;
75626;SDS011;67372;49.404;11.034;2023-03-14T15:40:42;1.98;;;1.17;;
75626;SDS011;67372;49.404;11.034;2023-03-14T15:43:08;1.52;;;0.90;;
75626;SDS011;67372;49.404;11.034;2023-03-14T15:45:35;2.35;;;1.10;;
75626;SDS011;67372;49.404;11.034;2023-03-14T15:48:01;1.33;;;1.02;;
75626;SDS011;67372;49.404;11.034;2023-03-14T15:50:28;1.90;;;1.00;;
75626;SDS011;67372;49.404;11.034;2023-03-14T15:52:55;2.78;;;1.38;;
75626;SDS011;67372;49.404;11.034;2023-03-14T15:58:02;1.05;;;0.75;;
75626;SDS011;67372;49.404;11.034;2023-03-14T16:00:29;0.80;;;0.60;;
75626;SDS011;67372;49.404;11.034;2023-03-14T16:02:56;1.20;;;0.88;;
75626;SDS011;67372;49.404;11.034;2023-03-14T16:05:23;1.20;;;0.63;;
75626;SDS011;67372;49.404;11.034;2023-03-14T16:07:49;2.05;;;0.70;;
75626;SDS011;67372;49.404;11.034;2023-03-14T16:10:16;0.82;;;0.73;;
75626;SDS011;67372;49.404;11.034;2023-03-14T16:12:42;1.90;;;0.73;;
75626;SDS011;67372;49.404;11.034;2023-03-14T16:15:09;0.93;;;0.52;;
75626;SDS011;67372;49.404;11.034;2023-03-14T16:17:36;1.67;;;0.68;;
75626;SDS011;67372;49.404;11.034;2023-03-14T16:20:03;1.52;;;0.70;;